Time;durP1;ratioP1;P1;durP2;ratioP2;P2;SDS_P1;SDS_P2;PMS_P1;PMS_P2;Temp;Humidity;BMP_temperature;BMP_pressure;BME280_temperature;BME280_humidity;BME280_pressure;Samples;Min_cycle;Max_cycle;Signal;HPM_P1;HPM_P2
2023/02/17 10:14:33;;;;;;;0.90;0.53;;;13.70;99.90;;;;;;3109877;23;20242;-76
2023/02/17 10:17:04;;;;;;;1.00;0.60;;;13.70;99.90;;;;;;4986612;28;20297;-72
2023/02/17 10:19:36;;;;;;;1.33;0.80;;;13.60;99.90;;;;;;4994365;28;20724;-73
2023/02/17 10:22:08;;;;;;;1.87;0.70;;;13.70;99.90;;;;;;4994725;28;20226;-72
2023/02/17 10:24:34;;;;;;;0.83;0.60;;;13.80;99.90;;;;;;4992928;28;20669;-74
2023/02/17 10:27:21;;;;;;;1.80;0.47;;;13.80;99.90;;;;;;4994609;28;20214;-72
2023/02/17 10:30:01;;;;;;;0.73;0.50;;;13.90;99.90;;;;;;4994880;28;20265;-70
2023/02/17 10:32:29;;;;;;;0.80;0.70;;;14.00;99.90;;;;;;4994197;28;20616;-72
2023/02/17 10:35:11;;;;;;;0.57;0.57;;;14.20;99.90;;;;;;4994414;28;20216;-71
2023/02/17 10:37:46;;;;;;;0.63;0.50;;;14.20;99.90;;;;;;4974715;28;20211;-73
2023/02/17 10:40:17;;;;;;;0.80;0.60;;;14.20;99.90;;;;;;4981259;28;20604;-73
2023/02/17 10:42:45;;;;;;;1.13;0.63;;;14.20;99.90;;;;;;4994081;28;20585;-73
2023/02/17 10:45:29;;;;;;;1.80;0.70;;;14.40;99.90;;;;;;4994740;28;20217;-73
2023/02/17 10:48:01;;;;;;;1.07;0.50;;;14.40;99.90;;;;;;4996978;28;20475;-73
2023/02/17 10:50:28;;;;;;;3.23;0.70;;;14.40;99.90;;;;;;4999780;28;20213;-73
2023/02/17 10:52:56;;;;;;;0.80;0.40;;;14.50;99.90;;;;;;4996207;28;20230;-73
2023/02/17 10:55:31;;;;;;;0.70;0.60;;;14.50;99.90;;;;;;4994047;28;20649;-73
2023/02/17 10:58:04;;;;;;;4.40;0.50;;;14.60;99.90;;;;;;4993963;28;20210;-72
2023/02/17 11:00:33;;;;;;;0.83;0.60;;;14.70;99.90;;;;;;4992933;28;20234;-73
2023/02/17 11:02:59;;;;;;;3.53;0.90;;;15.00;99.90;;;;;;4994159;28;20234;-71
2023/02/17 11:05:28;;;;;;;2.13;0.60;;;14.90;99.90;;;;;;4993764;28;20581;-71
2023/02/17 11:07:58;;;;;;;0.70;0.60;;;14.80;99.90;;;;;;4993218;28;20199;-70
2023/02/17 11:10:28;;;;;;;2.70;0.60;;;14.80;99.90;;;;;;4993551;28;20233;-71
2023/02/17 11:12:57;;;;;;;2.63;0.60;;;14.70;99.90;;;;;;4993314;28;20222;-72
2023/02/17 11:15:28;;;;;;;0.60;0.50;;;14.50;99.90;;;;;;4992751;28;20225;-74
2023/02/17 11:17:59;;;;;;;0.70;0.60;;;14.50;99.90;;;;;;4993904;28;20673;-72
2023/02/17 11:20:32;;;;;;;1.20;0.70;;;14.40;99.90;;;;;;4993740;28;20700;-73
2023/02/17 11:23:06;;;;;;;0.77;0.50;;;14.40;99.90;;;;;;4993521;28;20226;-70
2023/02/17 11:25:36;;;;;;;1.90;0.70;;;14.30;99.90;;;;;;4993603;28;20213;-71
2023/02/17 11:28:05;;;;;;;1.07;0.80;;;14.40;99.90;;;;;;4993249;28;20729;-73
2023/02/17 11:30:35;;;;;;;4.47;0.70;;;14.40;99.90;;;;;;4992629;28;20213;-74
2023/02/17 11:33:12;;;;;;;1.00;0.70;;;14.40;99.90;;;;;;4993471;28;20235;-72
2023/02/17 11:35:49;;;;;;;1.00;0.60;;;14.50;99.90;;;;;;4993469;28;20209;-75
2023/02/17 11:38:18;;;;;;;1.30;0.73;;;14.50;99.90;;;;;;4992298;28;20595;-74
2023/02/17 11:40:54;;;;;;;2.00;0.50;;;14.40;99.90;;;;;;4993063;28;20716;-70
2023/02/17 11:43:22;;;;;;;0.97;0.80;;;14.40;99.90;;;;;;4992054;28;20665;-76
2023/02/17 11:45:56;;;;;;;0.70;0.57;;;14.40;99.90;;;;;;4991743;28;20206;-73
2023/02/17 11:48:46;;;;;;;0.80;0.60;;;14.40;99.90;;;;;;4993082;28;20565;-73
2023/02/17 11:51:20;;;;;;;1.20;0.70;;;14.40;99.90;;;;;;4993131;28;20233;-68
2023/02/17 11:53:57;;;;;;;0.80;0.70;;;14.70;99.90;;;;;;4992929;28;20202;-69
2023/02/17 11:56:31;;;;;;;1.20;0.67;;;14.90;99.90;;;;;;4993224;28;20214;-73
2023/02/17 11:59:22;;;;;;;3.10;0.50;;;15.10;99.90;;;;;;4993895;28;20210;-74
2023/02/17 12:02:11;;;;;;;0.80;0.60;;;15.30;99.90;;;;;;4992123;28;20245;-75
2023/02/17 12:04:46;;;;;;;2.10;0.57;;;15.10;99.90;;;;;;4997627;28;20210;-70
2023/02/17 12:07:24;;;;;;;0.67;0.60;;;15.10;99.90;;;;;;4997385;28;20571;-70
2023/02/17 12:10:00;;;;;;;2.20;0.60;;;14.90;99.90;;;;;;5000099;28;20210;-74
2023/02/17 12:12:36;;;;;;;0.73;0.60;;;15.10;99.90;;;;;;4993229;28;20237;-72
2023/02/17 12:15:19;;;;;;;0.60;0.50;;;15.20;99.90;;;;;;4992475;28;20214;-72
2023/02/17 12:17:55;;;;;;;0.70;0.50;;;14.90;99.90;;;;;;4995650;28;20216;-74
2023/02/17 12:20:41;;;;;;;1.27;0.50;;;14.60;99.90;;;;;;4994157;28;20328;-67
2023/02/17 12:23:23;;;;;;;0.40;0.20;;;14.30;99.90;;;;;;4992770;28;20744;-69
2023/02/17 12:25:57;;;;;;;0.50;0.20;;;14.10;99.90;;;;;;4993635;28;20213;-67
2023/02/17 12:28:52;;;;;;;0.90;0.40;;;13.80;99.90;;;;;;4993502;28;20241;-69
2023/02/17 12:31:34;;;;;;;2.07;0.50;;;13.90;99.90;;;;;;4992979;28;20229;-68
2023/02/17 12:34:06;;;;;;;0.60;0.43;;;13.70;99.90;;;;;;4992763;28;20216;-67
2023/02/17 12:36:38;;;;;;;2.63;0.40;;;13.80;99.90;;;;;;4992305;28;20206;-67
2023/02/17 12:39:13;;;;;;;0.40;0.20;;;13.80;99.90;;;;;;4992752;28;20234;-67
2023/02/17 12:41:43;;;;;;;2.20;0.40;;;13.90;99.90;;;;;;4992195;28;20245;-66
2023/02/17 12:44:15;;;;;;;0.40;0.30;;;14.10;99.90;;;;;;4992137;28;20217;-67
2023/02/17 12:46:44;;;;;;;3.60;0.30;;;14.00;99.90;;;;;;4992073;28;20207;-67
2023/02/17 12:49:14;;;;;;;0.80;0.37;;;14.00;99.90;;;;;;4989147;28;20198;-70
2023/02/17 12:51:47;;;;;;;0.43;0.30;;;14.20;99.90;;;;;;4991420;28;20218;-72
2023/02/17 12:54:20;;;;;;;1.07;0.40;;;14.10;99.90;;;;;;4992513;28;20210;-69
2023/02/17 12:57:01;;;;;;;1.13;0.30;;;13.90;99.90;;;;;;4992260;28;20661;-68
2023/02/17 12:59:32;;;;;;;0.80;0.30;;;13.90;99.90;;;;;;4991654;28;20202;-67
2023/02/17 13:02:02;;;;;;;0.60;0.30;;;14.00;99.90;;;;;;4989764;28;20249;-68
2023/02/17 13:04:31;;;;;;;2.37;0.40;;;14.10;99.90;;;;;;4991732;28;20212;-72
2023/02/17 13:07:20;;;;;;;2.40;0.40;;;14.00;99.90;;;;;;4993182;28;20210;-68
2023/02/17 13:09:48;;;;;;;0.77;0.50;;;13.90;99.90;;;;;;4993559;28;20210;-67
2023/02/17 13:12:29;;;;;;;3.77;0.30;;;13.80;99.90;;;;;;4993054;28;20234;-67
2023/02/17 13:14:58;;;;;;;0.80;0.23;;;13.90;99.90;;;;;;4997262;28;20681;-68
2023/02/17 13:17:28;;;;;;;0.30;0.20;;;14.00;99.90;;;;;;4997062;28;20213;-67
2023/02/17 13:20:23;;;;;;;0.50;0.17;;;13.80;99.90;;;;;;4997606;28;20210;-67
2023/02/17 13:23:02;;;;;;;0.30;0.17;;;13.60;99.90;;;;;;4997554;28;20693;-67
2023/02/17 13:25:31;;;;;;;1.90;0.30;;;13.60;99.90;;;;;;4997193;28;20217;-68
2023/02/17 13:27:58;;;;;;;1.87;0.30;;;13.60;99.90;;;;;;4997055;28;20217;-67
2023/02/17 13:30:30;;;;;;;0.50;0.30;;;13.50;99.90;;;;;;4997137;28;20728;-67
2023/02/17 13:33:15;;;;;;;1.27;0.40;;;13.50;99.90;;;;;;4997047;28;20273;-67
2023/02/17 13:35:42;;;;;;;1.27;0.80;;;13.70;99.90;;;;;;4997017;28;20214;-67
2023/02/17 13:38:10;;;;;;;0.70;0.43;;;13.70;99.90;;;;;;4996921;28;20211;-68
2023/02/17 13:40:39;;;;;;;2.17;0.60;;;13.80;99.90;;;;;;4996754;28;20573;-67
2023/02/17 13:43:13;;;;;;;0.90;0.70;;;13.70;99.90;;;;;;4996903;28;20757;-68
2023/02/17 13:45:44;;;;;;;1.57;0.70;;;13.70;99.90;;;;;;4997027;28;20561;-67
2023/02/17 13:48:14;;;;;;;0.67;0.40;;;13.70;99.90;;;;;;4996782;28;20538;-68
2023/02/17 13:50:44;;;;;;;1.90;0.33;;;13.70;99.90;;;;;;4996415;28;20210;-68
2023/02/17 13:53:24;;;;;;;0.47;0.20;;;13.70;99.90;;;;;;4996511;28;20214;-68
2023/02/17 13:55:52;;;;;;;0.70;0.30;;;13.70;99.90;;;;;;4996322;28;20230;-69
2023/02/17 13:58:23;;;;;;;0.50;0.20;;;13.80;99.90;;;;;;4996041;28;20211;-69
2023/02/17 14:00:50;;;;;;;0.77;0.40;;;13.60;99.90;;;;;;4996266;28;20241;-69
2023/02/17 14:03:21;;;;;;;0.70;0.50;;;13.60;99.90;;;;;;4996425;28;20210;-69
2023/02/17 14:05:50;;;;;;;1.03;0.70;;;13.60;99.90;;;;;;4996612;28;20206;-72
2023/02/17 14:08:23;;;;;;;1.33;0.73;;;13.70;99.90;;;;;;4996514;28;20206;-70
2023/02/17 14:10:50;;;;;;;0.73;0.70;;;13.60;99.90;;;;;;4995960;28;20656;-72
2023/02/17 14:13:18;;;;;;;1.67;1.00;;;13.80;99.90;;;;;;4996687;28;20206;-69
2023/02/17 14:15:54;;;;;;;2.43;1.30;;;13.80;99.90;;;;;;4995670;28;20218;-69
2023/02/17 14:18:30;;;;;;;1.20;0.97;;;13.60;99.90;;;;;;4996462;28;20260;-69
2023/02/17 14:21:03;;;;;;;3.00;0.80;;;13.70;99.90;;;;;;4995959;28;20316;-68
2023/02/17 14:23:41;;;;;;;1.70;0.60;;;13.60;99.90;;;;;;4996239;28;20213;-68
2023/02/17 14:26:14;;;;;;;1.47;0.80;;;13.50;99.90;;;;;;4995293;28;20209;-68
2023/02/17 14:28:52;;;;;;;1.63;0.50;;;13.40;99.90;;;;;;4995845;28;20565;-69
2023/02/17 14:31:24;;;;;;;1.40;0.80;;;13.40;99.90;;;;;;4995723;28;20223;-69
2023/02/17 14:33:59;;;;;;;1.27;0.60;;;13.40;99.90;;;;;;4996152;28;20289;-68
2023/02/17 14:36:28;;;;;;;0.77;0.60;;;13.50;99.90;;;;;;4995869;28;20704;-68
2023/02/17 14:38:57;;;;;;;1.20;0.77;;;13.40;99.90;;;;;;4995903;28;20206;-68
2023/02/17 14:41:25;;;;;;;0.97;0.70;;;13.30;99.90;;;;;;4995859;28;20245;-68
2023/02/17 14:43:52;;;;;;;9.57;1.20;;;13.20;99.90;;;;;;4995865;28;20261;-69
2023/02/17 14:46:19;;;;;;;3.17;1.17;;;13.20;99.90;;;;;;4995561;28;20216;-68
2023/02/17 14:48:46;;;;;;;1.00;0.90;;;13.20;99.90;;;;;;4995358;28;20613;-68
2023/02/17 14:51:14;;;;;;;1.00;0.60;;;13.20;99.90;;;;;;4995673;28;20234;-68
2023/02/17 14:53:41;;;;;;;2.87;1.10;;;13.20;99.90;;;;;;4995463;28;20211;-69
2023/02/17 14:56:17;;;;;;;1.63;0.73;;;13.10;99.90;;;;;;4995485;28;20203;-68
2023/02/17 14:58:45;;;;;;;2.67;0.53;;;13.20;99.90;;;;;;4995668;28;20206;-68
2023/02/17 15:01:14;;;;;;;3.60;0.97;;;13.20;99.90;;;;;;4994999;28;20238;-68
2023/02/17 15:03:41;;;;;;;0.80;0.60;;;13.20;99.90;;;;;;4995327;28;20217;-68
2023/02/17 15:06:13;;;;;;;0.87;0.80;;;13.10;99.90;;;;;;4995425;28;20217;-68
2023/02/17 15:08:40;;;;;;;3.27;0.83;;;13.00;99.90;;;;;;4995354;28;20246;-68
2023/02/17 15:11:15;;;;;;;1.63;0.70;;;13.00;99.90;;;;;;4995253;28;20230;-68
2023/02/17 15:13:42;;;;;;;2.10;1.40;;;12.90;99.90;;;;;;4995093;28;20237;-68
2023/02/17 15:16:09;;;;;;;3.27;0.77;;;12.70;99.90;;;;;;4994866;28;20207;-70
2023/02/17 15:18:36;;;;;;;0.70;0.60;;;12.70;99.90;;;;;;4995380;28;20202;-69
2023/02/17 15:21:11;;;;;;;1.13;0.57;;;12.70;99.90;;;;;;4994952;28;20697;-69
2023/02/17 15:23:38;;;;;;;1.60;0.80;;;12.80;99.90;;;;;;4994960;28;20214;-70
2023/02/17 15:26:08;;;;;;;3.30;0.70;;;12.80;99.90;;;;;;4994731;28;20211;-70
2023/02/17 15:28:36;;;;;;;1.90;0.80;;;12.70;99.90;;;;;;4994513;28;20206;-69
2023/02/17 15:31:03;;;;;;;1.33;0.70;;;12.80;99.90;;;;;;4994734;28;20238;-68
2023/02/17 15:33:30;;;;;;;2.97;0.73;;;12.80;99.90;;;;;;4995003;28;20207;-67
2023/02/17 15:35:56;;;;;;;0.90;0.70;;;12.80;99.90;;;;;;4989834;28;20217;-69
2023/02/17 15:38:26;;;;;;;1.80;0.80;;;12.80;99.90;;;;;;4992865;28;20214;-68
2023/02/17 15:40:55;;;;;;;1.53;0.83;;;12.60;99.90;;;;;;4993335;28;20210;-69
2023/02/17 15:43:24;;;;;;;5.20;0.87;;;12.70;99.90;;;;;;4989915;28;20229;-72
2023/02/17 15:45:52;;;;;;;1.83;0.90;;;12.60;99.90;;;;;;4993603;28;20338;-72
2023/02/17 15:48:25;;;;;;;1.63;1.00;;;12.60;99.90;;;;;;4993357;28;20219;-71
2023/02/17 15:50:53;;;;;;;2.53;1.23;;;12.60;99.90;;;;;;4992790;28;20202;-68
2023/02/17 15:53:19;;;;;;;1.30;0.93;;;12.40;99.90;;;;;;4990280;28;20202;-71
2023/02/17 15:55:47;;;;;;;1.53;1.00;;;12.50;99.90;;;;;;4992619;28;20209;-72
2023/02/17 15:58:17;;;;;;;1.57;1.17;;;12.50;99.90;;;;;;4992788;28;20203;-71
2023/02/17 16:00:45;;;;;;;1.63;1.27;;;12.50;99.90;;;;;;4993019;28;20633;-73
2023/02/17 16:03:14;;;;;;;1.80;1.43;;;12.50;99.90;;;;;;4993337;28;20206;-72
2023/02/17 16:05:41;;;;;;;2.50;1.03;;;12.50;99.90;;;;;;4989634;28;20225;-69
2023/02/17 16:08:08;;;;;;;1.50;1.10;;;12.60;99.90;;;;;;4992891;28;20206;-68
2023/02/17 16:10:38;;;;;;;2.93;1.00;;;12.50;99.90;;;;;;4992825;28;20207;-69
2023/02/17 16:13:05;;;;;;;1.00;0.80;;;12.50;99.90;;;;;;4990169;28;20209;-71
2023/02/17 16:15:32;;;;;;;4.77;0.90;;;12.50;99.90;;;;;;4992697;23;20769;-75
2023/02/17 16:17:59;;;;;;;1.57;1.00;;;12.40;99.90;;;;;;4973502;28;20246;-83
2023/02/17 16:20:32;;;;;;;1.23;0.70;;;12.50;99.90;;;;;;4973449;28;20566;-78
2023/02/17 16:22:59;;;;;;;4.27;0.80;;;12.50;99.90;;;;;;4954627;28;20243;-85
2023/02/17 16:25:28;;;;;;;1.70;0.97;;;12.40;99.90;;;;;;4954161;28;20219;-77
2023/02/17 16:27:55;;;;;;;3.17;0.90;;;12.20;99.90;;;;;;4953931;28;20212;-77
2023/02/17 16:30:29;;;;;;;2.63;0.83;;;12.00;99.90;;;;;;4954051;28;20234;-81
2023/02/17 16:32:56;;;;;;;1.07;0.80;;;11.90;99.90;;;;;;4953594;28;20236;-78
2023/02/17 16:35:25;;;;;;;1.03;0.93;;;11.90;99.90;;;;;;4953581;28;20218;-78
2023/02/17 16:37:55;;;;;;;3.00;0.90;;;11.80;99.90;;;;;;4954154;28;20208;-80
2023/02/17 16:40:24;;;;;;;0.67;0.67;;;11.80;99.90;;;;;;4954481;28;20210;-79
2023/02/17 16:42:51;;;;;;;1.30;0.80;;;11.70;99.90;;;;;;4953172;28;20243;-83
2023/02/17 16:45:20;;;;;;;2.87;1.20;;;11.60;99.90;;;;;;4953797;28;20219;-76
2023/02/17 16:47:50;;;;;;;1.97;1.20;;;11.60;99.90;;;;;;4953257;28;20214;-76
2023/02/17 16:50:22;;;;;;;2.30;1.20;;;11.50;99.90;;;;;;4953336;28;20212;-75
2023/02/17 16:52:49;;;;;;;2.23;1.47;;;11.40;99.90;;;;;;4953726;28;20228;-74
2023/02/17 16:55:20;;;;;;;2.30;1.30;;;11.40;99.90;;;;;;4949708;28;20200;-73
2023/02/17 16:57:47;;;;;;;3.10;1.27;;;11.40;99.90;;;;;;4953489;28;20667;-73
2023/02/17 17:00:17;;;;;;;1.40;0.97;;;11.40;99.90;;;;;;4954106;28;20211;-73
2023/02/17 17:02:43;;;;;;;1.57;1.20;;;11.40;99.90;;;;;;4972687;28;20277;-76
2023/02/17 17:05:12;;;;;;;1.70;1.20;;;11.40;99.90;;;;;;4962028;28;20214;-75
2023/02/17 17:07:40;;;;;;;3.03;1.90;;;11.40;99.90;;;;;;4968825;28;20623;-72
2023/02/17 17:10:08;;;;;;;1.93;1.20;;;11.40;99.90;;;;;;4963387;28;20218;-73
2023/02/17 17:12:37;;;;;;;1.87;1.00;;;11.50;99.90;;;;;;4968803;28;20244;-71
2023/02/17 17:15:04;;;;;;;1.57;1.10;;;11.40;99.90;;;;;;4943360;28;20572;-75
2023/02/17 17:17:34;;;;;;;2.17;1.67;;;11.40;99.90;;;;;;4950368;28;20575;-73
2023/02/17 17:20:01;;;;;;;2.17;1.40;;;11.40;99.90;;;;;;4953104;28;20215;-72
2023/02/17 17:22:28;;;;;;;1.60;1.30;;;11.40;99.90;;;;;;4953011;28;20244;-72
2023/02/17 17:24:54;;;;;;;1.87;1.43;;;11.50;99.90;;;;;;4944105;28;20212;-75
2023/02/17 17:27:21;;;;;;;2.10;1.70;;;11.40;99.90;;;;;;4948921;28;20208;-73
2023/02/17 17:29:49;;;;;;;3.53;1.77;;;11.50;99.90;;;;;;4953373;28;20208;-73
2023/02/17 17:32:16;;;;;;;2.00;1.43;;;11.50;99.90;;;;;;4953261;28;20238;-75
2023/02/17 17:34:43;;;;;;;1.67;1.50;;;11.50;99.90;;;;;;4945299;28;20231;-73
2023/02/17 17:37:11;;;;;;;2.37;1.40;;;11.50;99.90;;;;;;4947846;28;20683;-77
2023/02/17 17:39:38;;;;;;;3.10;1.30;;;11.40;99.90;;;;;;4951373;28;20212;-77
2023/02/17 17:42:05;;;;;;;1.73;1.40;;;11.40;99.90;;;;;;4952543;28;20250;-74
2023/02/17 17:44:32;;;;;;;1.80;1.57;;;11.40;99.90;;;;;;4934104;28;20564;-78
2023/02/17 17:47:00;;;;;;;3.60;1.50;;;11.40;99.90;;;;;;4946063;28;20649;-73
2023/02/17 17:49:27;;;;;;;1.70;1.60;;;11.30;99.90;;;;;;4958261;28;20204;-74
2023/02/17 17:51:54;;;;;;;3.40;1.60;;;11.20;99.90;;;;;;4947419;28;20244;-74
2023/02/17 17:54:20;;;;;;;3.13;1.77;;;11.20;99.90;;;;;;4943648;28;20208;-79
2023/02/17 17:56:47;;;;;;;2.60;1.90;;;11.30;99.90;;;;;;4949603;28;20222;-73
2023/02/17 17:59:14;;;;;;;3.23;1.70;;;11.20;99.90;;;;;;4969592;28;20585;-74
2023/02/17 18:01:41;;;;;;;2.33;1.80;;;11.20;99.90;;;;;;4956195;28;20240;-72
2023/02/17 18:04:09;;;;;;;2.20;1.90;;;11.20;99.90;;;;;;4946233;28;20213;-73
2023/02/17 18:06:40;;;;;;;2.97;1.97;;;11.20;99.90;;;;;;4946504;28;20210;-76
2023/02/17 18:09:09;;;;;;;1.80;1.30;;;11.10;99.90;;;;;;4956202;28;20208;-72
2023/02/17 18:11:38;;;;;;;2.10;1.67;;;11.10;99.90;;;;;;4959026;28;20215;-76
2023/02/17 18:14:06;;;;;;;2.30;1.70;;;11.00;99.90;;;;;;4957240;28;20205;-72
2023/02/17 18:16:35;;;;;;;2.27;1.70;;;11.00;99.90;;;;;;4945619;28;20674;-73
2023/02/17 18:19:04;;;;;;;2.43;1.60;;;11.00;99.90;;;;;;4955792;28;20212;-72
2023/02/17 18:21:33;;;;;;;2.20;1.70;;;11.20;99.90;;;;;;4956575;28;20242;-73
2023/02/17 18:23:59;;;;;;;2.80;2.27;;;11.20;99.90;;;;;;4957589;28;20212;-73
2023/02/17 18:26:28;;;;;;;2.33;1.73;;;11.20;99.90;;;;;;4957552;28;20212;-73
2023/02/17 18:28:54;;;;;;;4.63;1.77;;;11.30;99.90;;;;;;4957313;28;20567;-73
2023/02/17 18:31:21;;;;;;;4.83;1.87;;;11.20;99.90;;;;;;4957253;28;20230;-73
2023/02/17 18:33:48;;;;;;;3.10;2.40;;;11.20;99.90;;;;;;4957428;28;20215;-73
2023/02/17 18:36:18;;;;;;;1.83;1.60;;;11.20;99.90;;;;;;4957251;28;20262;-72
2023/02/17 18:38:46;;;;;;;2.60;1.83;;;11.20;99.90;;;;;;4957476;28;20218;-73
2023/02/17 18:41:17;;;;;;;3.63;1.53;;;11.10;99.90;;;;;;4957080;28;20235;-72
2023/02/17 18:43:43;;;;;;;3.50;1.80;;;11.10;99.90;;;;;;4957264;28;20243;-73
2023/02/17 18:46:10;;;;;;;3.37;1.73;;;11.10;99.90;;;;;;4956862;28;20208;-73
2023/02/17 18:48:37;;;;;;;3.20;2.30;;;11.10;99.90;;;;;;4957026;28;20212;-73
2023/02/17 18:51:06;;;;;;;2.17;1.60;;;11.20;99.90;;;;;;4956916;28;20228;-74
2023/02/17 18:53:33;;;;;;;3.97;1.90;;;11.20;99.90;;;;;;4957212;28;20212;-74
2023/02/17 18:56:02;;;;;;;1.67;1.50;;;11.30;99.90;;;;;;4957327;28;20302;-74
2023/02/17 18:58:30;;;;;;;2.97;2.10;;;11.30;99.90;;;;;;4957056;28;20223;-72
2023/02/17 19:00:57;;;;;;;3.13;1.70;;;11.20;99.90;;;;;;4961137;28;20219;-73
2023/02/17 19:03:23;;;;;;;4.63;1.70;;;11.20;99.90;;;;;;4959931;28;20243;-72
2023/02/17 19:05:50;;;;;;;2.10;1.70;;;11.20;99.90;;;;;;4956771;28;20234;-74
2023/02/17 19:08:17;;;;;;;4.33;2.13;;;11.20;99.90;;;;;;4956689;28;20218;-73
2023/02/17 19:10:44;;;;;;;3.43;2.03;;;11.30;99.90;;;;;;4955326;28;20292;-73
2023/02/17 19:13:12;;;;;;;2.70;1.97;;;11.30;99.90;;;;;;4955493;28;20200;-73
2023/02/17 19:15:39;;;;;;;2.70;2.07;;;11.30;99.90;;;;;;4955144;28;20218;-73
2023/02/17 19:18:06;;;;;;;2.40;2.07;;;11.20;99.90;;;;;;4953939;28;20192;-72
2023/02/17 19:20:33;;;;;;;3.23;1.90;;;11.20;99.90;;;;;;4952661;28;20204;-73
2023/02/17 19:23:01;;;;;;;5.53;2.57;;;11.30;99.90;;;;;;4954679;28;20239;-73
2023/02/17 19:25:28;;;;;;;3.00;1.97;;;11.20;99.90;;;;;;4955320;28;20196;-73
2023/02/17 19:27:54;;;;;;;4.03;2.80;;;11.30;99.90;;;;;;4955141;28;20204;-73
2023/02/17 19:30:23;;;;;;;4.77;2.47;;;11.20;99.90;;;;;;4955577;28;20219;-73
2023/02/17 19:32:49;;;;;;;3.80;2.23;;;11.20;99.90;;;;;;4946245;28;20232;-72
2023/02/17 19:35:16;;;;;;;4.20;2.60;;;11.20;99.90;;;;;;4951599;28;20204;-72
2023/02/17 19:37:43;;;;;;;3.97;2.90;;;11.20;99.90;;;;;;4939399;28;20205;-72
2023/02/17 19:40:10;;;;;;;4.13;3.00;;;11.30;99.90;;;;;;4954675;28;20208;-72
2023/02/17 19:42:38;;;;;;;6.83;3.70;;;11.30;99.90;;;;;;4946795;28;20240;-74
2023/02/17 19:45:06;;;;;;;5.40;3.50;;;11.30;99.90;;;;;;4946117;28;20259;-74
2023/02/17 19:47:34;;;;;;;5.80;3.13;;;11.30;99.90;;;;;;4947666;28;20204;-73
2023/02/17 19:50:00;;;;;;;5.40;3.30;;;11.40;99.90;;;;;;4953088;28;20205;-72
2023/02/17 19:52:27;;;;;;;4.73;3.00;;;11.40;99.90;;;;;;4949547;28;20224;-73
2023/02/17 19:54:54;;;;;;;6.43;3.90;;;11.40;99.90;;;;;;4951799;28;20215;-73
2023/02/17 19:57:21;;;;;;;6.83;3.60;;;11.30;99.90;;;;;;4952768;28;20200;-73
2023/02/17 19:59:48;;;;;;;6.70;3.70;;;11.30;99.90;;;;;;4950046;28;20208;-73
2023/02/17 20:02:16;;;;;;;5.73;3.87;;;11.30;99.90;;;;;;4953340;28;20247;-73
2023/02/17 20:04:44;;;;;;;6.10;3.77;;;11.20;99.90;;;;;;4955044;28;20208;-73
2023/02/17 20:07:11;;;;;;;7.00;3.90;;;11.20;99.90;;;;;;4954347;28;20215;-73
2023/02/17 20:09:38;;;;;;;11.13;4.50;;;11.20;99.90;;;;;;4954406;28;20299;-73
2023/02/17 20:12:05;;;;;;;5.73;3.60;;;11.30;99.90;;;;;;4954573;28;20339;-73
2023/02/17 20:14:32;;;;;;;8.10;3.37;;;11.30;99.90;;;;;;4953811;28;20694;-73
2023/02/17 20:16:59;;;;;;;6.30;3.63;;;11.40;99.90;;;;;;4954494;28;20655;-73
2023/02/17 20:19:26;;;;;;;6.50;2.90;;;11.40;99.90;;;;;;4953828;28;20211;-73
2023/02/17 20:21:54;;;;;;;5.80;3.37;;;11.40;99.90;;;;;;4953797;28;20243;-74
2023/02/17 20:24:21;;;;;;;6.40;3.90;;;11.30;99.90;;;;;;4953735;28;20591;-73
2023/02/17 20:26:52;;;;;;;6.50;3.57;;;11.30;99.90;;;;;;4954507;28;20216;-73
2023/02/17 20:29:19;;;;;;;6.43;3.63;;;11.40;99.90;;;;;;4954358;28;20208;-73
2023/02/17 20:31:46;;;;;;;5.43;3.43;;;11.30;99.90;;;;;;4953926;28;20231;-74
2023/02/17 20:34:25;;;;;;;7.87;3.60;;;11.40;99.90;;;;;;4952777;28;20212;-74
2023/02/17 20:36:54;;;;;;;5.47;3.40;;;11.40;99.90;;;;;;4953708;28;20619;-73
2023/02/17 20:39:20;;;;;;;5.77;3.27;;;11.30;99.90;;;;;;4954464;28;20204;-72
2023/02/17 20:41:47;;;;;;;5.43;3.50;;;11.30;99.90;;;;;;4953807;28;20254;-73
2023/02/17 20:44:14;;;;;;;6.03;3.47;;;11.40;99.90;;;;;;4954351;28;20258;-73
2023/02/17 20:46:42;;;;;;;5.00;3.70;;;11.30;99.90;;;;;;4953292;28;20239;-73
2023/02/17 20:49:09;;;;;;;5.87;3.33;;;11.30;99.90;;;;;;4953600;28;20211;-73
2023/02/17 20:51:36;;;;;;;4.93;3.60;;;11.30;99.90;;;;;;4953133;28;20236;-73
2023/02/17 20:54:05;;;;;;;4.23;2.93;;;11.30;99.90;;;;;;4953607;28;20207;-74
2023/02/17 20:56:34;;;;;;;4.47;3.33;;;11.40;99.90;;;;;;4953420;28;20212;-74
2023/02/17 20:59:02;;;;;;;4.83;3.23;;;11.30;99.90;;;;;;4954355;28;20215;-73
2023/02/17 21:01:29;;;;;;;8.07;4.03;;;11.30;99.90;;;;;;4953359;28;20228;-73
2023/02/17 21:03:56;;;;;;;5.73;3.83;;;11.30;99.90;;;;;;4954115;28;20243;-74
2023/02/17 21:06:25;;;;;;;6.13;3.70;;;11.40;99.90;;;;;;4953542;28;20226;-74
2023/02/17 21:08:53;;;;;;;6.10;3.70;;;11.30;99.90;;;;;;4953800;28;20204;-72
2023/02/17 21:11:22;;;;;;;7.30;3.23;;;11.40;99.90;;;;;;4953144;28;20224;-72
2023/02/17 21:13:49;;;;;;;5.67;3.77;;;11.40;99.90;;;;;;4953652;28;20222;-72
2023/02/17 21:16:18;;;;;;;5.77;3.70;;;11.40;99.90;;;;;;4953649;28;20216;-73
2023/02/17 21:18:46;;;;;;;6.03;4.10;;;11.40;99.90;;;;;;4953441;28;20304;-72
2023/02/17 21:21:13;;;;;;;6.30;3.93;;;11.40;99.90;;;;;;4953510;28;20228;-72
2023/02/17 21:23:39;;;;;;;7.27;4.10;;;11.40;99.90;;;;;;4953200;28;20232;-72
2023/02/17 21:26:07;;;;;;;6.20;4.03;;;11.50;99.90;;;;;;4954068;28;20200;-74
2023/02/17 21:28:36;;;;;;;6.50;3.47;;;11.60;99.90;;;;;;4953191;28;20204;-73
2023/02/17 21:31:03;;;;;;;6.77;3.83;;;11.50;99.90;;;;;;4953069;28;20224;-73
2023/02/17 21:33:30;;;;;;;7.10;3.43;;;11.50;99.90;;;;;;4953776;28;20216;-72
2023/02/17 21:35:57;;;;;;;6.03;3.87;;;11.50;99.90;;;;;;4957641;28;20208;-73
2023/02/17 21:38:24;;;;;;;5.77;3.97;;;11.50;99.90;;;;;;4957417;28;20207;-72
2023/02/17 21:40:51;;;;;;;5.30;3.20;;;11.50;99.90;;;;;;4957613;28;20208;-73
2023/02/17 21:46:09;;;;;;;6.53;4.10;;;11.40;99.90;;;;;;4948277;28;20234;-74
2023/02/17 21:48:37;;;;;;;6.77;4.30;;;11.40;99.90;;;;;;4956411;28;20215;-74
2023/02/17 21:51:06;;;;;;;8.30;4.67;;;11.40;99.90;;;;;;4956011;28;20232;-74
2023/02/17 21:53:32;;;;;;;7.07;4.13;;;11.50;99.90;;;;;;4955241;28;20230;-74
2023/02/17 21:55:59;;;;;;;5.90;4.17;;;11.50;99.90;;;;;;4955665;28;20299;-74
2023/02/17 21:58:26;;;;;;;8.37;4.63;;;11.30;99.90;;;;;;4956145;28;20205;-74
2023/02/17 22:00:53;;;;;;;9.97;4.80;;;11.30;99.90;;;;;;4956255;28;20215;-74
2023/02/17 22:03:22;;;;;;;6.40;4.10;;;11.30;99.90;;;;;;4956574;28;20239;-75
2023/02/17 22:05:48;;;;;;;5.60;3.87;;;11.40;99.90;;;;;;4956801;28;20208;-74
2023/02/17 22:08:16;;;;;;;8.40;4.17;;;11.20;99.90;;;;;;4957012;28;20235;-73
2023/02/17 22:10:43;;;;;;;9.03;4.57;;;11.20;99.90;;;;;;4956300;28;20215;-73
2023/02/17 22:13:10;;;;;;;6.87;3.83;;;11.20;99.90;;;;;;4957175;28;20208;-75
2023/02/17 22:15:37;;;;;;;6.27;4.03;;;11.30;99.90;;;;;;4956737;28;20671;-74
2023/02/17 22:18:04;;;;;;;10.67;4.40;;;11.30;99.90;;;;;;4956709;28;20215;-74
2023/02/17 22:20:32;;;;;;;9.73;4.50;;;11.20;99.90;;;;;;4956125;28;20231;-74
2023/02/17 22:22:59;;;;;;;8.00;4.23;;;11.20;99.90;;;;;;4956280;28;20220;-75
2023/02/17 22:25:27;;;;;;;6.07;4.10;;;11.20;99.90;;;;;;4956480;28;20303;-74
2023/02/17 22:27:53;;;;;;;8.77;4.57;;;11.10;99.90;;;;;;4956588;28;20204;-73
2023/02/17 22:30:20;;;;;;;10.17;4.17;;;11.20;99.90;;;;;;4956596;28;20566;-74
2023/02/17 22:32:47;;;;;;;8.23;4.70;;;11.10;99.90;;;;;;4956470;28;20254;-75
2023/02/17 22:35:14;;;;;;;6.97;3.97;;;11.20;99.90;;;;;;4952231;28;20227;-73
